Wallasey, United Kingdom
Current Conditions -  °F | °C
As of 5:20 PM on Saturday 25 Oct 2014 (Local Time) from EGGP Reporting Station
Scattered Clouds Scattered Clouds  
Wind Chill: 57°   Ceiling: Unl
Heat Index: 57°   Visibility: 6mi
Dew Point: 48°   Wind: 14mph
Humidity: 72%   Direction: 240°WSW
Pressure: 29.94"   Gusts: NA
Location:  53.42°N, 3.07°W
Report Text: EGGP 251620Z 24012KT 9999 FEW020 SCT035 14/09 Q1014
Loading
Personal Weather Stations






























Interactive Weather Map
Tropical Storm Tracking
New forecast layout! Learn more

10-Day Weather Forecast

Advertisements
Track Severe Weather on mobile